Time;durP1;ratioP1;P1;durP2;ratioP2;P2;SDS_P1;SDS_P2;PMS_P1;PMS_P2;Temp;Humidity;BMP_temperature;BMP_pressure;BME280_temperature;BME280_humidity;BME280_pressure;Samples;Min_cycle;Max_cycle;Signal;HPM_P1;HPM_P2
2022/11/11 00:00:36;;;;;;;11.77;6.70;;;5.50;99.90;;;;;;5055329;28;20192;-65
2022/11/11 00:03:22;;;;;;;7.30;5.75;;;5.50;99.90;;;;;;5053862;28;20189;-63
2022/11/11 00:06:11;;;;;;;12.35;9.65;;;5.50;99.90;;;;;;5055166;28;20192;-64
2022/11/11 00:08:57;;;;;;;14.80;11.05;;;5.50;99.90;;;;;;5055177;28;20212;-64
2022/11/11 00:11:43;;;;;;;6.60;5.95;;;5.40;99.90;;;;;;5055196;28;20228;-65
2022/11/11 00:14:30;;;;;;;7.82;4.97;;;5.40;99.90;;;;;;5058040;28;20223;-65
2022/11/11 00:26:31;;;;;;;12.90;8.73;;;5.30;99.90;;;;;;5074346;28;20639;-65
2022/11/11 00:29:19;;;;;;;9.63;7.40;;;5.30;99.90;;;;;;5073159;28;20232;-65
2022/11/11 00:32:22;;;;;;;9.48;6.80;;;5.30;99.90;;;;;;5057655;28;20545;-64
2022/11/11 00:38:44;;;;;;;29.25;13.13;;;5.30;99.90;;;;;;5063292;28;20761;-64
2022/11/11 00:41:24;;;;;;;31.80;11.95;;;5.20;99.90;;;;;;5054367;28;20236;-64
2022/11/11 00:44:10;;;;;;;15.65;10.70;;;5.30;99.90;;;;;;5068551;28;20184;-64
2022/11/11 00:53:10;;;;;;;12.73;8.05;;;5.10;99.90;;;;;;5074540;28;20191;-65
2022/11/11 00:55:57;;;;;;;19.65;11.50;;;5.10;99.90;;;;;;5063043;28;20221;-65
2022/11/11 00:58:43;;;;;;;9.02;6.90;;;5.00;99.90;;;;;;5054448;28;20658;-65
2022/11/11 01:01:29;;;;;;;9.65;5.70;;;5.00;99.90;;;;;;5056547;28;20265;-65
2022/11/11 01:04:16;;;;;;;6.30;4.75;;;5.00;99.90;;;;;;5073556;28;20204;-65
2022/11/11 01:07:03;;;;;;;7.95;6.13;;;5.00;99.90;;;;;;5071349;28;20188;-65
2022/11/11 01:09:52;;;;;;;7.25;6.13;;;5.00;99.90;;;;;;5073886;28;20244;-66
2022/11/11 01:12:38;;;;;;;13.25;7.90;;;5.00;99.90;;;;;;5054818;28;20690;-65
2022/11/11 01:15:25;;;;;;;5.85;5.20;;;5.00;99.90;;;;;;5052198;28;20213;-66
2022/11/11 01:18:13;;;;;;;7.00;6.05;;;4.90;99.90;;;;;;5059218;28;20196;-65
2022/11/11 01:21:01;;;;;;;12.00;5.95;;;4.90;99.90;;;;;;5071670;28;20193;-65
2022/11/11 01:23:48;;;;;;;8.52;5.65;;;4.90;99.90;;;;;;5072764;28;20654;-65
2022/11/11 01:26:36;;;;;;;11.77;6.43;;;4.80;99.90;;;;;;5072780;28;20195;-65
2022/11/11 01:29:23;;;;;;;11.32;7.60;;;4.90;99.90;;;;;;5059681;28;20228;-65
2022/11/11 01:32:09;;;;;;;8.65;5.78;;;4.80;99.90;;;;;;5061972;28;20192;-62
2022/11/11 01:34:55;;;;;;;13.65;6.50;;;4.70;99.90;;;;;;5052694;28;20209;-62
2022/11/11 01:37:42;;;;;;;12.60;7.30;;;4.70;99.90;;;;;;5054020;28;20642;-65
2022/11/11 01:40:28;;;;;;;8.48;6.90;;;4.70;99.90;;;;;;5064157;28;20196;-65
2022/11/11 01:43:22;;;;;;;9.27;5.80;;;4.70;99.90;;;;;;5073348;28;20257;-65
2022/11/11 01:46:20;;;;;;;10.68;5.32;;;4.60;99.90;;;;;;5053018;28;20624;-64
2022/11/11 01:49:21;;;;;;;7.50;5.82;;;4.60;99.90;;;;;;5053384;28;20554;-64
2022/11/11 01:52:10;;;;;;;6.40;5.13;;;4.50;99.90;;;;;;5052928;28;20615;-65
2022/11/11 01:54:59;;;;;;;8.40;5.65;;;4.60;99.90;;;;;;5052053;28;20223;-65
2022/11/11 01:57:49;;;;;;;11.30;5.78;;;4.60;99.90;;;;;;5052949;28;20200;-65
2022/11/11 02:00:37;;;;;;;6.25;5.10;;;4.60;99.90;;;;;;5052884;28;20189;-63
2022/11/11 02:03:25;;;;;;;5.45;4.93;;;4.60;99.90;;;;;;5051931;28;20196;-63
2022/11/11 02:06:11;;;;;;;6.60;5.03;;;4.60;99.90;;;;;;5052674;28;20185;-63
2022/11/11 02:08:57;;;;;;;6.70;6.03;;;4.60;99.90;;;;;;5052486;28;20185;-64
2022/11/11 02:14:52;;;;;;;5.82;5.28;;;4.50;99.90;;;;;;5052037;28;20220;-65
2022/11/11 02:17:40;;;;;;;7.07;5.70;;;4.50;99.90;;;;;;5052208;28;20185;-64
2022/11/11 02:20:30;;;;;;;5.32;4.30;;;4.40;99.90;;;;;;5052415;28;20208;-64
2022/11/11 02:23:24;;;;;;;7.47;5.03;;;4.40;99.90;;;;;;5052376;28;20209;-65
2022/11/11 02:26:16;;;;;;;5.25;4.63;;;4.50;99.90;;;;;;5051963;28;21076;-64
2022/11/11 02:29:08;;;;;;;6.97;4.57;;;4.60;99.90;;;;;;5051517;28;20224;-64
2022/11/11 02:31:54;;;;;;;5.85;4.90;;;4.60;99.90;;;;;;5052958;28;20591;-64
2022/11/11 02:34:40;;;;;;;6.25;4.65;;;4.50;99.90;;;;;;5051583;28;20196;-65
2022/11/11 02:37:27;;;;;;;7.72;5.72;;;4.40;99.90;;;;;;5052672;28;20184;-65
2022/11/11 02:40:17;;;;;;;9.48;6.28;;;4.30;99.90;;;;;;5051563;28;20200;-65
2022/11/11 02:43:05;;;;;;;11.60;5.70;;;4.30;99.90;;;;;;5052142;28;20208;-65
2022/11/11 02:45:54;;;;;;;9.32;6.40;;;4.30;99.90;;;;;;5051590;28;20195;-64
2022/11/11 02:48:40;;;;;;;10.85;7.35;;;4.40;99.90;;;;;;5052123;28;20235;-64
2022/11/11 02:51:26;;;;;;;9.85;5.95;;;4.40;99.90;;;;;;5052140;28;20193;-64
2022/11/11 02:54:12;;;;;;;11.98;6.50;;;4.40;99.90;;;;;;5051926;28;20531;-65
2022/11/11 02:57:08;;;;;;;10.48;6.82;;;4.50;99.90;;;;;;5051900;28;20620;-64
2022/11/11 02:59:58;;;;;;;11.32;6.78;;;4.50;99.90;;;;;;5051877;28;20574;-64
2022/11/11 03:02:45;;;;;;;8.82;6.18;;;4.50;99.90;;;;;;5051020;28;20271;-64
2022/11/11 03:05:31;;;;;;;13.18;7.72;;;4.60;99.90;;;;;;5050422;28;20245;-64
2022/11/11 03:08:18;;;;;;;7.57;5.55;;;4.50;99.90;;;;;;5051156;28;20196;-64
2022/11/11 03:11:04;;;;;;;5.30;4.80;;;4.30;99.90;;;;;;5053249;28;20643;-65
2022/11/11 03:13:51;;;;;;;4.53;3.97;;;4.20;99.90;;;;;;5067542;28;20185;-65
2022/11/11 03:19:43;;;;;;;9.50;7.00;;;4.00;99.90;;;;;;5055931;28;20555;-64
2022/11/11 03:22:28;;;;;;;6.97;6.22;;;3.90;99.90;;;;;;5058620;28;20494;-64
2022/11/11 03:28:20;;;;;;;5.53;3.83;;;3.80;99.90;;;;;;5059013;28;20759;-64
2022/11/11 03:31:06;;;;;;;9.13;8.15;;;3.80;99.90;;;;;;5059252;28;20222;-64
2022/11/11 03:33:54;;;;;;;18.70;14.70;;;3.90;99.90;;;;;;5075809;28;20192;-65
2022/11/11 03:39:41;;;;;;;10.18;9.00;;;3.80;99.90;;;;;;5057610;28;20208;-64
2022/11/11 03:42:27;;;;;;;14.48;11.95;;;3.90;99.90;;;;;;5055010;28;20189;-64
2022/11/11 03:45:13;;;;;;;12.20;9.27;;;3.90;99.90;;;;;;5064604;28;20200;-65
2022/11/11 03:48:00;;;;;;;8.57;7.40;;;4.10;99.90;;;;;;5057957;28;20196;-65
2022/11/11 03:50:48;;;;;;;11.50;6.97;;;4.20;99.90;;;;;;5074402;28;20573;-64
2022/11/11 03:53:35;;;;;;;11.73;7.10;;;4.30;99.90;;;;;;5057648;28;20208;-64
2022/11/11 03:56:21;;;;;;;18.60;7.97;;;4.40;99.90;;;;;;5055019;28;20209;-64
2022/11/11 03:59:07;;;;;;;24.00;10.90;;;4.40;99.90;;;;;;5067249;28;20196;-64
2022/11/11 04:11:12;;;;;;;14.48;7.45;;;4.60;99.90;;;;;;5056213;28;20224;-64
2022/11/11 04:17:06;;;;;;;19.95;8.68;;;4.70;99.90;;;;;;5054935;28;20216;-64
2022/11/11 04:22:56;;;;;;;20.92;8.20;;;4.80;99.90;;;;;;5062338;28;20218;-64
2022/11/11 04:25:49;;;;;;;15.55;6.97;;;4.80;99.90;;;;;;5063464;28;20180;-64
2022/11/11 04:34:44;;;;;;;9.50;6.40;;;4.70;99.90;;;;;;5073453;28;20188;-64
2022/11/11 04:37:32;;;;;;;12.95;6.15;;;4.60;99.90;;;;;;5058799;28;20624;-65
2022/11/11 04:43:24;;;;;;;5.10;3.80;;;4.60;99.90;;;;;;5066121;28;20199;-64
2022/11/11 04:46:09;;;;;;;5.57;5.05;;;4.40;99.90;;;;;;5053904;28;20231;-64
2022/11/11 04:48:56;;;;;;;10.20;9.38;;;4.50;99.90;;;;;;5064530;28;20200;-64
2022/11/11 04:57:48;;;;;;;16.38;7.70;;;4.80;99.90;;;;;;5054067;28;20219;-64
2022/11/11 05:00:36;;;;;;;49.88;8.73;;;4.90;99.90;;;;;;5062733;28;20218;-65
2022/11/11 05:03:22;;;;;;;15.70;7.20;;;4.90;99.90;;;;;;5065899;28;20219;-65
2022/11/11 05:09:12;;;;;;;33.83;6.60;;;5.00;99.90;;;;;;5058813;28;20207;-65
2022/11/11 05:11:59;;;;;;;37.28;6.00;;;4.90;99.90;;;;;;5068694;28;20273;-64
2022/11/11 05:27:04;;;;;;;65.45;11.18;;;5.20;99.90;;;;;;5063097;28;20182;-65
2022/11/11 05:29:50;;;;;;;52.85;10.32;;;5.10;99.90;;;;;;5053806;28;20188;-64
2022/11/11 05:32:36;;;;;;;56.83;8.15;;;5.10;99.90;;;;;;5063100;28;20208;-64
2022/11/11 05:35:24;;;;;;;39.05;9.40;;;5.10;99.90;;;;;;5058558;28;20196;-65
2022/11/11 05:38:20;;;;;;;41.58;9.20;;;5.00;99.90;;;;;;5052696;28;20192;-64
2022/11/11 05:41:08;;;;;;;16.10;8.55;;;4.90;99.90;;;;;;5071576;28;20262;-64
2022/11/11 05:43:54;;;;;;;22.08;9.32;;;4.80;99.90;;;;;;5062548;28;20189;-64
2022/11/11 05:46:40;;;;;;;23.02;9.80;;;4.90;99.90;;;;;;5065564;28;20184;-64
2022/11/11 05:49:27;;;;;;;41.83;12.02;;;5.00;99.90;;;;;;5056530;28;20271;-65
2022/11/11 05:52:16;;;;;;;24.17;9.80;;;5.00;99.90;;;;;;5052465;28;20200;-65
2022/11/11 05:55:03;;;;;;;51.13;15.13;;;5.00;99.90;;;;;;5056138;28;20222;-65
2022/11/11 05:57:49;;;;;;;56.97;24.85;;;5.10;99.90;;;;;;5053404;28;20201;-65
2022/11/11 06:00:36;;;;;;;37.50;16.85;;;5.10;99.90;;;;;;5069446;28;20646;-65
2022/11/11 06:03:23;;;;;;;50.38;15.63;;;5.20;99.90;;;;;;5053537;28;20189;-67
2022/11/11 06:06:10;;;;;;;41.47;13.93;;;5.30;99.90;;;;;;5052113;28;20200;-65
2022/11/11 06:08:58;;;;;;;36.10;9.88;;;5.20;99.90;;;;;;5068497;28;20195;-66
2022/11/11 06:11:44;;;;;;;33.05;9.23;;;5.20;99.90;;;;;;5066312;28;20227;-65
2022/11/11 06:14:31;;;;;;;23.60;9.02;;;5.30;99.90;;;;;;5062980;28;20603;-65
2022/11/11 06:17:17;;;;;;;32.08;9.77;;;5.40;99.90;;;;;;5056623;28;20752;-65
2022/11/11 06:20:04;;;;;;;33.85;10.50;;;5.20;99.90;;;;;;5062048;28;20197;-65
2022/11/11 06:22:57;;;;;;;37.20;10.70;;;5.40;99.90;;;;;;5054628;28;20198;-65
2022/11/11 06:28:50;;;;;;;34.83;12.10;;;5.60;99.90;;;;;;5059266;28;20250;-64
2022/11/11 06:31:37;;;;;;;48.92;11.95;;;5.70;99.90;;;;;;5054458;28;20826;-65
2022/11/11 06:34:23;;;;;;;41.63;8.20;;;5.70;99.90;;;;;;5056081;28;20204;-65
2022/11/11 06:37:10;;;;;;;28.20;7.90;;;5.70;99.90;;;;;;5052163;28;20615;-64
2022/11/11 06:39:56;;;;;;;18.20;6.90;;;5.60;99.90;;;;;;5057068;28;20197;-65
2022/11/11 06:42:44;;;;;;;16.55;7.65;;;5.60;99.90;;;;;;5063565;28;20706;-64
2022/11/11 06:45:32;;;;;;;25.48;6.05;;;5.60;99.90;;;;;;5058784;28;20208;-65
2022/11/11 06:48:18;;;;;;;25.40;6.65;;;5.60;99.90;;;;;;5067778;28;20191;-64
2022/11/11 06:51:06;;;;;;;29.45;9.18;;;5.60;99.90;;;;;;5066270;28;20207;-64
2022/11/11 06:53:52;;;;;;;27.38;10.25;;;5.70;99.90;;;;;;5051653;28;20180;-64
2022/11/11 06:56:38;;;;;;;16.60;7.63;;;5.80;99.90;;;;;;5052452;28;20213;-64
2022/11/11 06:59:26;;;;;;;17.70;6.20;;;5.70;99.90;;;;;;5054035;28;20196;-66
2022/11/11 07:02:13;;;;;;;35.45;6.47;;;5.70;99.90;;;;;;5050561;28;20197;-66
2022/11/11 07:05:00;;;;;;;17.80;6.32;;;5.70;99.90;;;;;;5050587;28;20899;-66
2022/11/11 07:07:46;;;;;;;38.72;9.77;;;5.70;99.90;;;;;;5051727;28;20193;-66
2022/11/11 07:10:34;;;;;;;30.98;9.80;;;5.80;99.90;;;;;;5052008;28;20181;-65
2022/11/11 07:13:21;;;;;;;25.10;7.22;;;5.90;99.90;;;;;;5050442;28;20192;-66
2022/11/11 07:16:10;;;;;;;33.08;8.77;;;5.90;99.90;;;;;;5050808;28;20188;-66
2022/11/11 07:18:56;;;;;;;52.67;13.50;;;5.90;99.90;;;;;;5052481;28;20215;-66
2022/11/11 07:21:42;;;;;;;127.18;15.75;;;6.00;99.90;;;;;;5052870;28;20555;-65
2022/11/11 07:24:29;;;;;;;77.38;9.73;;;6.00;99.90;;;;;;5051473;28;20204;-65
2022/11/11 07:27:15;;;;;;;39.33;10.27;;;6.00;99.90;;;;;;5052332;28;20717;-65
2022/11/11 07:30:02;;;;;;;55.78;8.45;;;6.00;99.90;;;;;;5055795;28;20211;-65
2022/11/11 07:32:51;;;;;;;56.42;9.85;;;6.00;99.90;;;;;;5063494;28;20192;-64
2022/11/11 07:35:37;;;;;;;61.47;29.33;;;6.10;99.90;;;;;;5060741;28;20211;-64
2022/11/11 07:38:23;;;;;;;51.08;13.77;;;6.10;99.90;;;;;;5053515;28;20569;-66
2022/11/11 07:41:09;;;;;;;45.60;8.10;;;6.20;99.90;;;;;;5065130;28;20643;-66
2022/11/11 07:43:56;;;;;;;43.63;10.50;;;6.40;99.90;;;;;;5055604;28;20189;-65
2022/11/11 07:46:43;;;;;;;28.23;10.65;;;6.30;99.90;;;;;;5054017;28;20254;-65
2022/11/11 07:49:30;;;;;;;28.42;11.38;;;6.30;99.90;;;;;;5060184;28;20207;-64
2022/11/11 07:52:17;;;;;;;33.08;9.88;;;6.40;99.90;;;;;;5050688;28;20200;-65
2022/11/11 07:55:04;;;;;;;46.15;12.05;;;6.30;99.90;;;;;;5052279;28;20204;-64
2022/11/11 07:57:52;;;;;;;37.55;15.13;;;6.50;99.90;;;;;;5055469;28;20217;-64
2022/11/11 08:00:38;;;;;;;25.63;9.20;;;6.70;99.90;;;;;;5057126;28;20184;-65
2022/11/11 08:03:24;;;;;;;31.23;14.63;;;6.70;99.90;;;;;;5052494;28;20193;-64
2022/11/11 08:06:12;;;;;;;30.15;8.55;;;6.70;99.90;;;;;;5068956;28;20712;-64
2022/11/11 08:08:58;;;;;;;43.63;9.02;;;6.60;99.90;;;;;;5054380;28;20216;-64
2022/11/11 08:14:49;;;;;;;30.90;9.25;;;6.50;99.90;;;;;;5053112;28;20200;-65
2022/11/11 08:17:39;;;;;;;31.05;8.90;;;6.70;99.90;;;;;;5068370;28;20414;-65
2022/11/11 08:20:26;;;;;;;36.85;7.70;;;6.80;99.90;;;;;;5064981;28;20199;-65
2022/11/11 08:23:16;;;;;;;36.28;8.95;;;6.80;99.90;;;;;;5067148;28;20659;-65
2022/11/11 08:26:03;;;;;;;31.98;7.88;;;6.70;99.90;;;;;;5069874;28;20188;-65
2022/11/11 08:28:52;;;;;;;24.65;7.97;;;6.70;99.90;;;;;;5063269;28;20251;-65
2022/11/11 08:31:39;;;;;;;49.97;10.52;;;6.80;99.90;;;;;;5055236;28;20196;-64
2022/11/11 08:34:25;;;;;;;27.90;7.72;;;6.80;99.90;;;;;;5065540;28;20188;-66
2022/11/11 08:37:11;;;;;;;38.97;8.90;;;6.70;99.90;;;;;;5052353;28;20219;-65
2022/11/11 08:39:59;;;;;;;29.65;10.82;;;6.80;99.90;;;;;;5057338;28;20238;-65
2022/11/11 08:42:46;;;;;;;27.15;11.23;;;6.90;99.90;;;;;;5069680;28;20196;-65
2022/11/11 08:45:32;;;;;;;34.78;11.00;;;7.00;99.90;;;;;;5055530;28;20577;-65
2022/11/11 08:48:19;;;;;;;30.90;10.10;;;6.90;99.90;;;;;;5060103;28;20551;-65
2022/11/11 08:51:06;;;;;;;20.77;9.80;;;6.90;99.90;;;;;;5052894;28;20201;-65
2022/11/11 08:53:52;;;;;;;51.10;9.82;;;6.90;99.90;;;;;;5058319;28;20199;-64
2022/11/11 08:56:40;;;;;;;23.92;9.40;;;7.10;99.90;;;;;;5057979;28;20254;-64
2022/11/11 08:59:26;;;;;;;37.78;8.57;;;7.20;99.90;;;;;;5058417;28;20218;-65
2022/11/11 09:02:14;;;;;;;34.03;10.52;;;7.20;99.90;;;;;;5057681;28;20197;-64
2022/11/11 09:05:01;;;;;;;24.48;8.68;;;7.10;99.90;;;;;;5053416;28;20212;-65
2022/11/11 09:07:47;;;;;;;29.80;9.85;;;7.30;99.90;;;;;;5066445;28;20197;-65
2022/11/11 09:10:34;;;;;;;33.55;9.63;;;7.40;99.90;;;;;;5065917;28;20196;-65
2022/11/11 09:13:22;;;;;;;17.30;8.90;;;7.40;99.90;;;;;;5060881;28;20192;-66
2022/11/11 09:16:09;;;;;;;25.98;8.73;;;7.50;99.90;;;;;;5069963;28;20211;-66
2022/11/11 09:18:56;;;;;;;30.13;9.88;;;7.50;99.90;;;;;;5070389;28;20204;-66
2022/11/11 09:21:42;;;;;;;17.13;8.90;;;7.40;99.90;;;;;;5063772;28;20184;-65
2022/11/11 09:24:28;;;;;;;21.88;12.23;;;7.40;99.90;;;;;;5062836;28;20193;-66
2022/11/11 09:27:15;;;;;;;72.03;10.27;;;7.50;99.90;;;;;;5054451;28;20710;-65
2022/11/11 09:30:02;;;;;;;61.13;11.27;;;7.30;99.90;;;;;;5071413;28;20200;-65
2022/11/11 09:32:49;;;;;;;24.42;8.40;;;7.30;99.90;;;;;;5061772;28;20200;-65
2022/11/11 09:35:36;;;;;;;23.75;9.80;;;7.30;99.90;;;;;;5068232;28;20720;-65
2022/11/11 09:38:22;;;;;;;33.97;10.05;;;7.40;99.90;;;;;;5057033;28;20561;-65
2022/11/11 09:41:18;;;;;;;18.30;10.80;;;7.50;99.90;;;;;;5060537;28;20188;-65
2022/11/11 09:44:05;;;;;;;20.60;9.57;;;7.70;99.90;;;;;;5058580;28;20557;-67
2022/11/11 09:47:00;;;;;;;13.35;8.80;;;7.80;99.90;;;;;;5056402;28;20200;-65
2022/11/11 09:50:00;;;;;;;18.90;9.88;;;7.80;99.90;;;;;;5056126;28;20205;-66
2022/11/11 09:52:51;;;;;;;22.02;9.85;;;8.00;99.90;;;;;;5061841;28;20209;-66
2022/11/11 09:55:42;;;;;;;14.65;7.68;;;8.20;99.90;;;;;;5065880;28;20203;-65
2022/11/11 09:58:34;;;;;;;14.88;9.25;;;8.10;99.90;;;;;;5071474;28;20492;-66
2022/11/11 10:01:23;;;;;;;10.40;7.10;;;8.20;99.90;;;;;;5054396;28;20189;-65
2022/11/11 10:04:23;;;;;;;16.90;9.00;;;8.10;99.90;;;;;;5052943;28;20196;-65
2022/11/11 10:07:14;;;;;;;21.48;9.38;;;8.00;99.90;;;;;;5051988;28;20185;-64
2022/11/11 10:10:08;;;;;;;14.13;8.55;;;8.20;99.90;;;;;;5062487;28;20193;-64
2022/11/11 10:12:57;;;;;;;16.60;8.48;;;8.50;99.90;;;;;;5052098;28;20195;-65
2022/11/11 10:15:54;;;;;;;14.00;9.20;;;8.70;99.90;;;;;;5056123;28;20642;-66
2022/11/11 10:18:55;;;;;;;17.63;9.85;;;8.80;99.90;;;;;;5066315;28;20602;-65
2022/11/11 10:21:49;;;;;;;16.27;9.00;;;8.80;99.90;;;;;;5049377;28;20567;-66
2022/11/11 10:24:40;;;;;;;10.73;7.85;;;8.70;99.90;;;;;;5050349;28;20181;-65
2022/11/11 10:27:28;;;;;;;24.92;10.18;;;8.80;99.90;;;;;;5050535;28;20270;-66
2022/11/11 10:30:19;;;;;;;20.17;8.45;;;8.80;99.90;;;;;;5059468;28;20196;-65
2022/11/11 10:33:13;;;;;;;17.80;8.68;;;8.50;99.90;;;;;;5061569;28;20819;-65
2022/11/11 10:36:03;;;;;;;10.93;9.05;;;8.30;99.90;;;;;;5064140;28;20196;-65
2022/11/11 10:38:58;;;;;;;22.23;9.35;;;8.40;99.90;;;;;;5057090;28;20220;-65
2022/11/11 10:41:47;;;;;;;12.88;10.75;;;8.50;99.90;;;;;;5064226;28;20192;-65
2022/11/11 10:44:35;;;;;;;15.07;10.63;;;8.70;99.90;;;;;;5068366;28;20192;-66
2022/11/11 10:47:33;;;;;;;18.70;8.60;;;8.90;99.90;;;;;;5070886;28;20184;-66
2022/11/11 10:50:23;;;;;;;19.20;11.00;;;8.80;99.90;;;;;;5059831;28;20208;-64
2022/11/11 10:53:16;;;;;;;12.60;9.07;;;8.70;99.90;;;;;;5051957;28;20682;-64
2022/11/11 10:56:14;;;;;;;17.92;10.98;;;8.80;99.90;;;;;;5051810;28;20199;-64
2022/11/11 10:59:11;;;;;;;18.17;10.50;;;9.00;99.90;;;;;;5050951;28;20209;-64
2022/11/11 11:02:04;;;;;;;11.93;9.80;;;9.00;99.90;;;;;;5051143;28;20204;-64
2022/11/11 11:04:56;;;;;;;12.30;9.27;;;8.90;99.90;;;;;;5050713;28;20686;-64
2022/11/11 11:07:46;;;;;;;15.63;9.98;;;9.00;99.90;;;;;;5052371;28;20188;-65
2022/11/11 11:10:39;;;;;;;11.15;9.07;;;8.50;99.90;;;;;;5051576;28;20195;-64
2022/11/11 11:13:35;;;;;;;13.55;8.48;;;8.70;99.90;;;;;;5052467;28;20211;-64
2022/11/11 11:16:25;;;;;;;10.65;8.85;;;8.70;99.90;;;;;;5052426;28;20200;-65
2022/11/11 11:19:16;;;;;;;12.75;8.38;;;8.70;99.90;;;;;;5053049;28;20231;-65
2022/11/11 11:22:04;;;;;;;10.13;8.85;;;8.80;99.90;;;;;;5052062;28;20197;-64
2022/11/11 11:24:50;;;;;;;18.10;9.30;;;9.00;99.90;;;;;;5060528;28;20197;-64
2022/11/11 11:27:37;;;;;;;13.68;8.82;;;8.90;99.90;;;;;;5066259;28;20235;-65
2022/11/11 11:30:26;;;;;;;11.15;9.15;;;8.70;99.90;;;;;;5067195;28;20681;-64
2022/11/11 11:33:12;;;;;;;12.98;10.00;;;8.50;99.90;;;;;;5062066;28;20205;-64
2022/11/11 11:36:13;;;;;;;22.67;10.13;;;8.50;99.90;;;;;;5062686;28;20201;-64
2022/11/11 11:39:00;;;;;;;25.40;9.80;;;8.40;99.90;;;;;;5063799;28;20685;-64
2022/11/11 11:41:49;;;;;;;24.70;10.63;;;8.10;99.90;;;;;;5064660;28;20195;-64
2022/11/11 11:44:37;;;;;;;26.60;9.05;;;8.20;99.90;;;;;;5066010;28;20193;-64
2022/11/11 11:47:40;;;;;;;15.93;9.45;;;8.30;99.90;;;;;;5065035;28;20200;-64
2022/11/11 11:50:39;;;;;;;14.63;9.98;;;8.60;99.90;;;;;;5066102;28;20200;-64
2022/11/11 11:53:39;;;;;;;14.85;10.63;;;8.50;99.90;;;;;;5067467;28;20205;-64
2022/11/11 11:56:36;;;;;;;15.45;9.48;;;8.40;99.90;;;;;;5071918;28;20268;-65
2022/11/11 11:59:30;;;;;;;16.48;10.23;;;8.40;99.90;;;;;;5061047;28;20209;-66
2022/11/11 12:02:40;;;;;;;13.80;9.82;;;8.50;99.90;;;;;;5056057;28;20208;-65
2022/11/11 12:05:33;;;;;;;14.98;11.90;;;8.50;99.90;;;;;;5062752;28;20211;-65
2022/11/11 12:08:43;;;;;;;17.27;12.70;;;8.50;99.90;;;;;;5064973;28;20181;-64
2022/11/11 12:11:38;;;;;;;16.23;10.80;;;8.50;99.90;;;;;;5064440;28;20215;-64
2022/11/11 12:14:48;;;;;;;13.30;10.60;;;8.70;99.90;;;;;;5064909;28;20205;-64
2022/11/11 12:17:50;;;;;;;18.02;11.55;;;8.50;99.90;;;;;;5063594;28;20185;-64
2022/11/11 12:20:42;;;;;;;14.70;11.25;;;8.60;99.90;;;;;;5060749;28;20217;-62
2022/11/11 12:23:57;;;;;;;13.35;10.40;;;8.50;99.90;;;;;;5064784;28;20187;-63
2022/11/11 12:26:51;;;;;;;16.67;12.85;;;8.50;99.90;;;;;;5065390;28;20196;-64
2022/11/11 12:29:48;;;;;;;16.20;11.88;;;8.50;99.90;;;;;;5063279;28;20193;-64
2022/11/11 12:32:52;;;;;;;21.75;13.40;;;8.50;99.90;;;;;;5064317;28;20200;-64
2022/11/11 12:35:54;;;;;;;16.50;12.57;;;8.40;99.90;;;;;;5061233;28;20200;-63
2022/11/11 12:38:57;;;;;;;18.65;12.50;;;8.70;99.90;;;;;;5064128;28;20203;-63
2022/11/11 12:41:59;;;;;;;22.42;12.70;;;8.70;99.90;;;;;;5064898;28;20189;-63
2022/11/11 12:44:54;;;;;;;22.45;13.90;;;8.80;99.90;;;;;;5057853;28;20204;-65
2022/11/11 12:47:57;;;;;;;19.00;14.82;;;8.70;99.90;;;;;;5064071;28;20199;-65
2022/11/11 12:50:51;;;;;;;21.90;13.65;;;8.60;99.90;;;;;;5062923;28;20195;-65
2022/11/11 12:53:46;;;;;;;24.45;13.80;;;8.60;99.90;;;;;;5068928;28;20199;-64
2022/11/11 12:56:38;;;;;;;17.00;12.85;;;8.70;99.90;;;;;;5064131;28;20192;-64
2022/11/11 12:59:40;;;;;;;18.95;14.50;;;8.90;99.90;;;;;;5066073;28;20215;-64
2022/11/11 13:02:52;;;;;;;25.63;16.42;;;9.00;99.90;;;;;;5061955;28;20719;-65
2022/11/11 13:05:47;;;;;;;19.85;13.60;;;9.20;99.90;;;;;;5059580;28;20222;-65
2022/11/11 13:09:04;;;;;;;17.70;14.90;;;9.20;99.90;;;;;;5061849;28;20201;-65
2022/11/11 13:12:00;;;;;;;20.50;13.75;;;9.00;99.90;;;;;;5070924;28;20235;-65
2022/11/11 13:15:04;;;;;;;16.40;12.50;;;9.10;99.90;;;;;;5060632;28;20200;-65
2022/11/11 13:17:51;;;;;;;19.92;12.95;;;9.20;99.90;;;;;;5061576;28;20206;-64
2022/11/11 13:20:53;;;;;;;17.98;13.02;;;9.20;99.90;;;;;;5060394;28;20783;-65
2022/11/11 13:23:40;;;;;;;16.77;13.27;;;9.30;99.90;;;;;;5067373;28;20219;-65
2022/11/11 13:26:32;;;;;;;19.00;13.10;;;9.30;99.90;;;;;;5054564;28;20196;-65
2022/11/11 13:30:01;;;;;;;18.77;12.07;;;9.30;99.90;;;;;;5063411;28;20437;-65
2022/11/11 13:32:51;;;;;;;21.42;12.35;;;9.30;99.90;;;;;;5054739;28;20204;-64
2022/11/11 13:35:42;;;;;;;19.13;12.77;;;9.30;99.90;;;;;;5065125;28;20191;-64
2022/11/11 13:38:34;;;;;;;17.30;12.57;;;9.30;99.90;;;;;;5071423;28;20208;-64
2022/11/11 13:41:25;;;;;;;24.88;13.20;;;9.20;99.90;;;;;;5058054;28;20207;-64
2022/11/11 13:44:22;;;;;;;19.13;13.55;;;9.20;99.90;;;;;;5064836;28;20208;-64
2022/11/11 13:47:17;;;;;;;17.98;14.18;;;8.90;99.90;;;;;;5059460;28;20223;-63
2022/11/11 13:50:07;;;;;;;19.73;13.55;;;9.00;99.90;;;;;;5057190;28;20443;-64
2022/11/11 13:52:59;;;;;;;23.02;15.45;;;9.00;99.90;;;;;;5059141;28;20198;-63
2022/11/11 13:55:47;;;;;;;35.38;21.38;;;9.10;99.90;;;;;;5057337;28;20200;-64
2022/11/11 13:58:36;;;;;;;22.58;14.38;;;9.10;99.90;;;;;;5064648;28;20188;-64
2022/11/11 14:01:24;;;;;;;25.35;18.20;;;9.00;99.90;;;;;;5071801;28;20674;-64
2022/11/11 14:04:11;;;;;;;25.20;15.15;;;9.10;99.90;;;;;;5052463;28;20196;-64
2022/11/11 14:06:57;;;;;;;21.65;15.75;;;9.00;99.90;;;;;;5055269;28;20195;-64
2022/11/11 14:09:59;;;;;;;21.60;15.18;;;9.10;99.90;;;;;;5073042;28;20631;-64
2022/11/11 14:12:47;;;;;;;27.80;16.52;;;9.10;99.90;;;;;;5061454;28;20222;-64
2022/11/11 14:15:40;;;;;;;19.40;13.55;;;9.20;99.90;;;;;;5063398;28;20200;-64
2022/11/11 14:18:48;;;;;;;20.60;14.32;;;9.10;99.90;;;;;;5051586;28;20185;-64
2022/11/11 14:21:47;;;;;;;19.77;12.73;;;9.10;99.90;;;;;;5051366;28;20192;-64
2022/11/11 14:24:39;;;;;;;26.90;17.75;;;9.20;99.90;;;;;;5051153;28;20510;-64
2022/11/11 14:27:32;;;;;;;20.75;14.73;;;9.20;99.90;;;;;;5062572;28;20229;-63
2022/11/11 14:30:37;;;;;;;25.92;15.38;;;9.00;99.90;;;;;;5060519;28;20197;-64
2022/11/11 14:33:45;;;;;;;17.52;13.63;;;8.90;99.90;;;;;;5061287;28;20560;-64
2022/11/11 14:36:42;;;;;;;19.45;13.13;;;9.00;99.90;;;;;;5059061;28;20211;-64
2022/11/11 14:39:38;;;;;;;20.88;14.80;;;8.90;99.90;;;;;;5060172;28;20204;-64
2022/11/11 14:42:44;;;;;;;20.05;13.80;;;8.70;99.90;;;;;;5060085;28;20196;-64
2022/11/11 14:46:03;;;;;;;19.40;13.25;;;8.70;99.90;;;;;;5055896;28;20200;-65
2022/11/11 14:49:01;;;;;;;21.42;14.73;;;8.70;99.90;;;;;;5050939;28;20204;-64
2022/11/11 14:51:54;;;;;;;27.25;18.10;;;8.80;99.90;;;;;;5050582;28;20197;-65
2022/11/11 14:54:54;;;;;;;19.15;14.38;;;8.90;99.90;;;;;;5051728;28;20215;-63
2022/11/11 14:57:44;;;;;;;31.38;16.90;;;8.80;99.90;;;;;;5051541;28;20274;-63
2022/11/11 15:00:33;;;;;;;29.40;17.38;;;8.80;99.90;;;;;;5061422;28;20221;-66
2022/11/11 15:03:27;;;;;;;30.58;17.95;;;8.90;99.90;;;;;;5064889;28;20615;-65
2022/11/11 15:06:18;;;;;;;30.73;17.60;;;8.90;99.90;;;;;;5055869;28;20655;-63
2022/11/11 15:09:19;;;;;;;25.90;17.65;;;8.80;99.90;;;;;;5053668;28;20188;-63
2022/11/11 15:12:16;;;;;;;25.15;17.40;;;8.80;99.90;;;;;;5051967;28;20224;-63
2022/11/11 15:15:12;;;;;;;28.38;17.25;;;8.60;99.90;;;;;;5062899;28;20701;-64
2022/11/11 15:18:09;;;;;;;26.85;18.42;;;8.60;99.90;;;;;;5059372;28;20188;-63
2022/11/11 15:21:05;;;;;;;31.83;20.33;;;8.70;99.90;;;;;;5052585;28;20555;-63
2022/11/11 15:24:03;;;;;;;35.17;19.70;;;8.50;99.90;;;;;;5050926;28;20208;-63
2022/11/11 15:26:57;;;;;;;31.90;19.35;;;8.50;99.90;;;;;;5050916;28;20655;-64
2022/11/11 15:30:02;;;;;;;30.08;18.05;;;8.40;99.90;;;;;;5052660;28;20209;-63
2022/11/11 15:33:01;;;;;;;69.13;19.38;;;8.40;99.90;;;;;;5052952;28;20203;-63
2022/11/11 15:35:53;;;;;;;37.80;21.05;;;8.10;99.90;;;;;;5061084;28;20200;-64
2022/11/11 15:38:40;;;;;;;34.50;19.00;;;8.20;99.90;;;;;;5052098;28;20196;-64
2022/11/11 15:41:33;;;;;;;34.35;19.02;;;8.30;99.90;;;;;;5052902;28;20208;-64
2022/11/11 15:44:23;;;;;;;41.58;18.20;;;8.40;99.90;;;;;;5054157;28;20204;-64
2022/11/11 15:47:14;;;;;;;77.90;21.40;;;8.40;99.90;;;;;;5061649;28;20551;-64
2022/11/11 15:50:01;;;;;;;61.50;27.20;;;8.40;99.90;;;;;;5054474;28;20924;-64
2022/11/11 15:52:47;;;;;;;44.28;23.05;;;8.30;99.90;;;;;;5051221;28;20237;-64
2022/11/11 15:55:38;;;;;;;41.30;19.77;;;8.30;99.90;;;;;;5052002;28;20204;-65
2022/11/11 15:58:27;;;;;;;42.90;20.20;;;8.30;99.90;;;;;;5061064;28;20184;-64
2022/11/11 16:01:13;;;;;;;49.05;20.55;;;8.10;99.90;;;;;;5071523;28;20569;-64
2022/11/11 16:04:00;;;;;;;56.88;19.52;;;8.10;99.90;;;;;;5060091;28;20200;-64
2022/11/11 16:06:47;;;;;;;32.20;17.20;;;8.10;99.90;;;;;;5064896;28;20196;-64